createdAt,value
2022-11-30T00:01:48.929Z,21.40
2022-11-30T00:04:18.324Z,21.77
2022-11-30T00:06:47.402Z,19.33
2022-11-30T00:09:18.310Z,22.15
2022-11-30T00:11:47.707Z,19.27
2022-11-30T00:14:16.864Z,19.27
2022-11-30T00:16:46.159Z,18.65
2022-11-30T00:19:15.215Z,18.98
2022-11-30T00:21:44.704Z,18.35
2022-11-30T00:24:14.079Z,18.73
2022-11-30T00:26:44.433Z,18.77
2022-11-30T00:29:13.604Z,17.73
2022-11-30T00:31:42.770Z,19.83
2022-11-30T00:34:12.392Z,18.75
2022-11-30T00:36:41.504Z,19.17
2022-11-30T00:39:10.632Z,17.25
2022-11-30T00:41:39.902Z,18.83
2022-11-30T00:44:10.222Z,18.52
2022-11-30T00:46:39.268Z,17.38
2022-11-30T00:49:08.563Z,17.98
2022-11-30T00:51:39.086Z,19.45
2022-11-30T00:54:08.332Z,19.95
2022-11-30T00:56:37.436Z,20.10
2022-11-30T00:59:07.095Z,18.20
2022-11-30T01:01:37.636Z,19.92
2022-11-30T01:04:07.163Z,18.65
2022-11-30T01:06:36.305Z,18.98
2022-11-30T01:09:05.822Z,18.70
2022-11-30T01:11:35.001Z,19.25
2022-11-30T01:14:04.202Z,18.58
2022-11-30T01:16:34.012Z,19.15
2022-11-30T01:19:04.449Z,18.05
2022-11-30T01:21:36.809Z,15.93
2022-11-30T01:24:05.927Z,18.90
2022-11-30T01:26:34.981Z,18.05
2022-11-30T01:29:04.215Z,19.77
2022-11-30T01:31:33.216Z,19.48
2022-11-30T01:34:02.478Z,18.27
2022-11-30T01:36:34.044Z,18.90
2022-11-30T01:39:03.080Z,16.95
2022-11-30T01:41:32.899Z,17.38
2022-11-30T01:44:19.734Z,19.80
2022-11-30T01:46:51.437Z,17.70
2022-11-30T01:49:22.320Z,18.30
2022-11-30T01:51:55.453Z,19.23
2022-11-30T01:54:26.738Z,18.10
2022-11-30T01:56:58.775Z,19.48
2022-11-30T01:59:28.120Z,16.80
2022-11-30T02:01:57.472Z,17.23
2022-11-30T02:04:28.530Z,18.63
2022-11-30T02:06:59.528Z,17.53
2022-11-30T02:09:29.390Z,19.30
2022-11-30T02:11:58.889Z,16.63
2022-11-30T02:14:33.365Z,19.33
2022-11-30T02:17:08.498Z,17.75
2022-11-30T02:19:55.208Z,16.85
2022-11-30T02:22:36.016Z,15.52
2022-11-30T02:25:09.062Z,16.63
2022-11-30T02:27:46.224Z,17.13
2022-11-30T02:30:18.274Z,18.05
2022-11-30T02:32:49.385Z,16.15
2022-11-30T02:35:20.703Z,16.37
2022-11-30T02:37:50.758Z,17.33
2022-11-30T02:40:20.423Z,17.15
2022-11-30T02:42:50.181Z,17.90
2022-11-30T02:45:23.432Z,14.68
2022-11-30T02:47:57.186Z,17.00
2022-11-30T02:50:30.155Z,14.73
2022-11-30T02:52:59.388Z,14.75
2022-11-30T02:55:30.476Z,17.58
2022-11-30T02:57:59.661Z,16.13
2022-11-30T03:00:30.215Z,16.27
2022-11-30T03:02:59.310Z,17.92
2022-11-30T03:05:28.718Z,16.30
2022-11-30T03:07:57.656Z,18.15
2022-11-30T03:10:26.921Z,16.00
2022-11-30T03:12:59.124Z,17.00
2022-11-30T03:15:28.360Z,18.33
2022-11-30T03:17:58.714Z,16.88
2022-11-30T03:20:27.811Z,15.80
2022-11-30T03:22:56.811Z,17.67
2022-11-30T03:25:25.753Z,17.17
2022-11-30T03:27:54.931Z,16.90
2022-11-30T03:30:24.050Z,16.30
2022-11-30T03:32:53.211Z,15.57
2022-11-30T03:35:23.717Z,17.08
2022-11-30T03:37:52.849Z,17.48
2022-11-30T03:40:21.838Z,16.23
2022-11-30T03:42:50.902Z,15.38
2022-11-30T03:45:20.069Z,14.23
2022-11-30T03:47:49.144Z,12.98
2022-11-30T03:50:18.347Z,15.73
2022-11-30T03:52:48.697Z,14.95
2022-11-30T03:55:17.774Z,16.70
2022-11-30T03:57:46.837Z,13.38
2022-11-30T04:00:16.924Z,14.52
2022-11-30T04:02:45.979Z,12.82
2022-11-30T04:05:15.088Z,15.15
2022-11-30T04:07:44.224Z,14.73
2022-11-30T04:10:14.657Z,13.98
2022-11-30T04:12:43.643Z,14.65
2022-11-30T04:15:12.856Z,15.70
2022-11-30T04:17:41.823Z,15.00
2022-11-30T04:20:11.116Z,12.60
2022-11-30T04:22:40.299Z,13.55
2022-11-30T04:25:09.726Z,15.45
2022-11-30T04:27:40.079Z,15.18
2022-11-30T04:30:10.109Z,15.18
2022-11-30T04:32:39.188Z,14.45
2022-11-30T04:35:08.644Z,13.85
2022-11-30T04:37:37.605Z,14.25
2022-11-30T04:40:07.777Z,14.13
2022-11-30T04:42:36.738Z,15.02
2022-11-30T04:45:07.589Z,14.27
2022-11-30T04:47:36.644Z,12.15
2022-11-30T04:50:19.493Z,14.85
2022-11-30T04:53:03.151Z,14.45
2022-11-30T04:55:34.403Z,13.50
2022-11-30T04:58:03.601Z,13.63
2022-11-30T05:00:34.383Z,15.20
2022-11-30T05:03:04.598Z,12.85
2022-11-30T05:05:33.739Z,12.73
2022-11-30T05:08:03.105Z,14.77
2022-11-30T05:10:33.828Z,15.57
2022-11-30T05:13:03.621Z,13.32
2022-11-30T05:15:34.310Z,15.05
2022-11-30T05:18:03.560Z,13.07
2022-11-30T05:20:32.552Z,14.82
2022-11-30T05:23:01.625Z,14.50
2022-11-30T05:25:30.650Z,15.13
2022-11-30T05:27:59.650Z,18.52
2022-11-30T05:30:28.721Z,14.32
2022-11-30T05:32:59.122Z,16.35
2022-11-30T05:35:28.464Z,14.55
2022-11-30T05:37:57.419Z,16.63
2022-11-30T05:40:28.041Z,15.45
2022-11-30T05:42:57.641Z,16.17
2022-11-30T05:45:26.693Z,15.32
2022-11-30T05:47:55.740Z,15.15
2022-11-30T05:50:25.986Z,15.68
2022-11-30T05:52:56.234Z,14.23
2022-11-30T05:55:25.323Z,15.18
2022-11-30T05:57:54.636Z,15.35
2022-11-30T06:00:24.012Z,16.92
2022-11-30T06:02:57.244Z,16.05
2022-11-30T06:05:27.931Z,14.52
2022-11-30T06:07:57.016Z,15.27
2022-11-30T06:10:27.416Z,12.43
2022-11-30T06:12:56.697Z,12.60
2022-11-30T06:15:25.724Z,14.15
2022-11-30T06:17:57.335Z,10.10
2022-11-30T06:20:27.949Z,11.27
2022-11-30T06:22:57.498Z,11.65
2022-11-30T06:25:26.572Z,12.32
2022-11-30T06:27:55.955Z,12.65
2022-11-30T06:30:25.177Z,13.32
2022-11-30T06:32:54.178Z,12.68
2022-11-30T06:35:23.204Z,13.98
2022-11-30T06:37:54.703Z,11.18
2022-11-30T06:40:23.902Z,12.23
2022-11-30T06:42:52.937Z,13.82
2022-11-30T06:45:21.913Z,10.93
2022-11-30T06:47:51.054Z,10.98
2022-11-30T06:50:20.135Z,11.05
2022-11-30T06:52:49.079Z,11.95
2022-11-30T06:55:19.664Z,12.50
2022-11-30T06:57:48.869Z,11.73
2022-11-30T07:00:19.053Z,13.45
2022-11-30T07:02:48.026Z,14.70
2022-11-30T07:05:17.126Z,17.15
2022-11-30T07:07:46.364Z,16.88
2022-11-30T07:10:19.895Z,14.77
2022-11-30T07:12:51.279Z,15.25
2022-11-30T07:15:20.726Z,15.52
2022-11-30T07:17:51.631Z,18.20
2022-11-30T07:20:21.235Z,15.70
2022-11-30T07:22:53.734Z,13.32
2022-11-30T07:25:46.778Z,13.50
2022-11-30T07:28:17.816Z,12.25
2022-11-30T07:30:50.371Z,14.10
2022-11-30T07:33:21.743Z,12.60
2022-11-30T07:35:57.735Z,14.15
2022-11-30T07:38:29.872Z,13.65
2022-11-30T07:40:59.445Z,16.52
2022-11-30T07:43:30.853Z,11.88
2022-11-30T07:46:01.221Z,12.45
2022-11-30T07:48:39.216Z,12.63
2022-11-30T07:51:14.365Z,11.05
2022-11-30T07:53:44.042Z,13.05
2022-11-30T07:56:15.832Z,10.55
2022-11-30T07:58:48.875Z,10.00
2022-11-30T08:01:21.672Z,11.15
2022-11-30T08:03:51.159Z,11.90
2022-11-30T08:06:24.325Z,11.98
2022-11-30T08:08:55.140Z,11.45
2022-11-30T08:11:27.304Z,9.93
2022-11-30T08:14:01.593Z,9.32
2022-11-30T08:16:35.171Z,9.32
2022-11-30T08:19:04.583Z,9.98
2022-11-30T08:21:35.803Z,9.80
2022-11-30T08:24:08.191Z,12.88
2022-11-30T08:26:41.080Z,8.90
2022-11-30T08:29:12.580Z,9.90
2022-11-30T08:31:43.178Z,11.43
2022-11-30T08:34:13.224Z,9.32
2022-11-30T08:36:44.915Z,9.98
2022-11-30T08:39:18.034Z,9.38
2022-11-30T08:41:47.363Z,8.75
2022-11-30T08:44:17.865Z,11.73
2022-11-30T08:49:36.064Z,9.95
2022-11-30T08:52:20.612Z,9.93
2022-11-30T08:54:50.889Z,10.48
2022-11-30T08:57:21.159Z,10.07
2022-11-30T08:59:51.727Z,10.38
2022-11-30T09:02:21.024Z,9.85
2022-11-30T09:04:51.776Z,8.98
2022-11-30T09:07:21.130Z,7.50
2022-11-30T09:09:50.262Z,9.05
2022-11-30T09:12:19.314Z,10.13
2022-11-30T09:14:57.370Z,9.55
2022-11-30T09:17:27.578Z,8.07
2022-11-30T09:19:56.704Z,10.05
2022-11-30T09:22:52.248Z,9.10
2022-11-30T09:25:21.707Z,8.43
2022-11-30T09:27:56.558Z,8.80
2022-11-30T09:30:27.787Z,8.65
2022-11-30T09:32:57.418Z,7.90
2022-11-30T09:35:26.767Z,9.48
2022-11-30T09:37:55.880Z,9.43
2022-11-30T09:40:34.053Z,9.00
2022-11-30T09:45:39.152Z,8.70
2022-11-30T09:48:18.416Z,7.97
2022-11-30T09:50:57.853Z,8.82
2022-11-30T09:53:37.000Z,9.93
2022-11-30T09:56:08.259Z,8.63
2022-11-30T09:58:43.079Z,8.55
2022-11-30T10:01:19.259Z,6.82
2022-11-30T10:03:48.861Z,6.65
2022-11-30T10:06:21.576Z,8.82
2022-11-30T10:08:56.485Z,7.22
2022-11-30T10:11:53.344Z,8.98
2022-11-30T10:14:57.266Z,8.63
2022-11-30T10:17:40.330Z,8.10
2022-11-30T10:20:24.972Z,7.68
2022-11-30T10:23:01.457Z,8.20
2022-11-30T10:25:34.899Z,6.80
2022-11-30T10:28:30.886Z,7.60
2022-11-30T10:30:57.556Z,7.40
2022-11-30T10:33:35.357Z,8.05
2022-11-30T10:36:20.126Z,7.82
2022-11-30T10:38:57.664Z,10.20
2022-11-30T10:41:33.184Z,7.95
2022-11-30T10:44:06.655Z,7.22
2022-11-30T10:46:37.015Z,6.70
2022-11-30T10:49:09.200Z,6.72
2022-11-30T10:51:40.921Z,7.43
2022-11-30T10:54:16.558Z,8.82
2022-11-30T10:56:45.685Z,8.45
2022-11-30T10:59:19.781Z,8.52
2022-11-30T11:01:53.675Z,8.38
2022-11-30T11:04:30.872Z,8.43
2022-11-30T11:07:04.647Z,8.13
2022-11-30T11:09:47.491Z,8.02
2022-11-30T11:12:19.662Z,7.50
2022-11-30T11:17:26.287Z,9.27
2022-11-30T11:19:57.564Z,8.02
2022-11-30T11:22:27.958Z,8.57
2022-11-30T11:25:09.147Z,7.88
2022-11-30T11:27:42.976Z,9.23
2022-11-30T11:30:20.828Z,9.35
2022-11-30T11:32:59.651Z,9.82
2022-11-30T11:35:40.941Z,9.77
2022-11-30T11:38:20.303Z,8.90
2022-11-30T11:41:01.448Z,7.38
2022-11-30T11:43:31.668Z,8.85
2022-11-30T11:46:03.792Z,8.85
2022-11-30T11:48:36.009Z,8.50
2022-11-30T11:51:10.233Z,8.80
2022-11-30T11:53:46.323Z,8.05
2022-11-30T11:56:22.778Z,8.80
2022-11-30T11:58:53.197Z,9.82
2022-11-30T12:01:39.902Z,8.15
2022-11-30T12:04:18.719Z,7.60
2022-11-30T12:06:58.835Z,10.63
2022-11-30T12:09:31.179Z,10.35
2022-11-30T12:12:11.142Z,8.93
2022-11-30T12:14:40.616Z,8.35
2022-11-30T12:17:21.998Z,10.18
2022-11-30T12:19:56.848Z,10.90
2022-11-30T12:22:35.204Z,9.68
2022-11-30T12:25:16.430Z,7.30
2022-11-30T12:27:53.815Z,6.33
2022-11-30T12:30:25.424Z,10.30
2022-11-30T12:33:15.393Z,9.37
2022-11-30T12:35:51.345Z,9.27
2022-11-30T12:38:28.063Z,10.95
2022-11-30T12:41:01.105Z,8.63
2022-11-30T12:43:38.117Z,10.00
2022-11-30T12:46:09.910Z,8.20
2022-11-30T12:48:43.491Z,7.90
2022-11-30T12:51:22.829Z,8.98
2022-11-30T12:54:00.959Z,8.25
2022-11-30T12:56:35.158Z,7.63
2022-11-30T12:59:10.359Z,9.13
2022-11-30T13:01:45.908Z,7.07
2022-11-30T13:04:18.889Z,9.57
2022-11-30T13:06:49.273Z,8.80
2022-11-30T13:09:23.137Z,9.13
2022-11-30T13:11:55.355Z,9.85
2022-11-30T13:14:25.866Z,9.70
2022-11-30T13:17:01.340Z,9.98
2022-11-30T13:19:47.071Z,10.32
2022-11-30T13:22:19.116Z,8.52
2022-11-30T13:24:55.864Z,9.02
2022-11-30T13:27:28.737Z,9.50
2022-11-30T13:30:22.183Z,9.80
2022-11-30T13:32:59.173Z,10.23
2022-11-30T13:35:42.599Z,9.60
2022-11-30T13:38:36.479Z,10.60
2022-11-30T13:41:09.485Z,10.07
2022-11-30T13:43:41.962Z,10.50
2022-11-30T13:46:16.460Z,10.68
2022-11-30T13:48:46.431Z,10.75
2022-11-30T13:51:16.023Z,10.40
2022-11-30T13:53:45.338Z,10.55
2022-11-30T13:56:35.385Z,10.30
2022-11-30T13:59:23.811Z,11.52
2022-11-30T14:01:53.191Z,9.63
2022-11-30T14:04:24.994Z,12.32
2022-11-30T14:06:55.429Z,11.25
2022-11-30T14:09:45.211Z,10.80
2022-11-30T14:12:29.175Z,11.35
2022-11-30T14:15:03.009Z,11.88
2022-11-30T14:17:35.597Z,11.60
2022-11-30T14:20:11.031Z,10.13
2022-11-30T14:22:42.085Z,11.38
2022-11-30T14:25:14.618Z,11.70
2022-11-30T14:27:44.570Z,10.90
2022-11-30T14:30:19.145Z,10.88
2022-11-30T14:32:51.160Z,11.30
2022-11-30T14:35:22.022Z,11.02
2022-11-30T14:37:54.589Z,11.07
2022-11-30T14:40:25.603Z,12.50
2022-11-30T14:42:55.928Z,12.15
2022-11-30T14:45:27.886Z,12.30
2022-11-30T14:48:08.471Z,12.50
2022-11-30T14:50:42.898Z,12.43
2022-11-30T14:53:26.197Z,12.98
2022-11-30T14:55:59.691Z,14.40
2022-11-30T14:58:33.426Z,14.10
2022-11-30T15:01:12.635Z,15.63
2022-11-30T15:03:42.040Z,14.20
2022-11-30T15:06:19.211Z,14.73
2022-11-30T15:08:50.144Z,16.08
2022-11-30T15:11:19.699Z,14.60
2022-11-30T15:13:49.924Z,16.15
2022-11-30T15:16:24.353Z,14.40
2022-11-30T15:18:54.855Z,16.23
2022-11-30T15:21:33.798Z,14.85
2022-11-30T15:24:05.220Z,15.43
2022-11-30T15:26:43.920Z,15.60
2022-11-30T15:29:17.032Z,15.15
2022-11-30T15:31:53.083Z,14.50
2022-11-30T15:34:28.741Z,15.10
2022-11-30T15:37:00.247Z,16.02
2022-11-30T15:39:30.854Z,14.68
2022-11-30T15:42:09.280Z,14.13
2022-11-30T15:44:44.160Z,17.58
2022-11-30T15:47:29.598Z,15.68
2022-11-30T15:49:59.082Z,17.05
2022-11-30T15:52:35.643Z,18.52
2022-11-30T15:55:07.721Z,20.38
2022-11-30T15:57:51.934Z,20.67
2022-11-30T16:00:24.071Z,19.13
2022-11-30T16:05:35.282Z,21.77
2022-11-30T16:08:06.397Z,23.15
2022-11-30T16:10:37.527Z,22.70
2022-11-30T16:13:07.590Z,22.58
2022-11-30T16:15:39.177Z,24.95
2022-11-30T16:18:15.452Z,23.77
2022-11-30T16:20:50.625Z,24.30
2022-11-30T16:23:20.291Z,24.40
2022-11-30T16:25:50.718Z,25.00
2022-11-30T16:28:20.881Z,24.13
2022-11-30T16:30:53.455Z,24.88
2022-11-30T16:33:23.417Z,22.85
2022-11-30T16:35:56.734Z,24.13
2022-11-30T16:38:26.418Z,22.48
2022-11-30T16:40:56.681Z,22.98
2022-11-30T16:43:26.783Z,20.30
2022-11-30T16:45:55.960Z,19.42
2022-11-30T16:48:25.305Z,22.13
2022-11-30T16:50:56.478Z,20.98
2022-11-30T16:53:28.706Z,21.30
2022-11-30T16:55:58.530Z,19.63
2022-11-30T16:58:27.888Z,21.38
2022-11-30T17:01:00.303Z,20.83
2022-11-30T17:03:32.097Z,21.33
2022-11-30T17:06:02.664Z,21.48
2022-11-30T17:08:31.877Z,22.60
2022-11-30T17:11:00.935Z,20.30
2022-11-30T17:13:30.172Z,19.13
2022-11-30T17:16:04.710Z,20.30
2022-11-30T17:18:33.949Z,21.10
2022-11-30T17:21:04.691Z,19.23
2022-11-30T17:23:33.890Z,19.73
2022-11-30T17:26:03.369Z,20.02
2022-11-30T17:28:32.597Z,19.08
2022-11-30T17:31:01.940Z,20.58
2022-11-30T17:33:35.720Z,19.73
2022-11-30T17:36:08.906Z,19.90
2022-11-30T17:38:38.738Z,18.92
2022-11-30T17:41:17.077Z,20.35
2022-11-30T17:43:49.922Z,18.13
2022-11-30T17:46:20.223Z,19.40
2022-11-30T17:48:49.948Z,17.83
2022-11-30T17:51:22.161Z,18.30
2022-11-30T17:53:51.428Z,15.90
2022-11-30T17:56:20.823Z,16.77
2022-11-30T17:58:50.187Z,16.90
2022-11-30T18:01:20.465Z,17.27
2022-11-30T18:03:49.880Z,18.45
2022-11-30T18:06:21.014Z,17.65
2022-11-30T18:08:50.613Z,18.38
2022-11-30T18:11:21.073Z,17.20
2022-11-30T18:13:53.962Z,17.38
2022-11-30T18:16:25.112Z,16.80
2022-11-30T18:18:56.351Z,18.65
2022-11-30T18:21:27.774Z,15.45
2022-11-30T18:23:57.125Z,17.00
2022-11-30T18:26:27.339Z,16.85
2022-11-30T18:29:00.441Z,16.02
2022-11-30T18:31:30.332Z,14.88
2022-11-30T18:34:01.024Z,16.50
2022-11-30T18:36:32.084Z,16.77
2022-11-30T18:39:05.396Z,16.55
2022-11-30T18:41:35.001Z,16.17
2022-11-30T18:44:06.477Z,16.50
2022-11-30T18:46:35.972Z,17.25
2022-11-30T18:49:07.967Z,17.50
2022-11-30T18:51:38.896Z,18.63
2022-11-30T18:54:08.559Z,17.73
2022-11-30T18:56:38.270Z,16.05
2022-11-30T18:59:08.567Z,17.48
2022-11-30T19:01:41.024Z,20.00
2022-11-30T19:04:11.497Z,17.30
2022-11-30T19:06:43.568Z,16.95
2022-11-30T19:09:22.360Z,18.55
2022-11-30T19:11:52.579Z,17.10
2022-11-30T19:14:22.035Z,17.35
2022-11-30T19:16:51.313Z,16.73
2022-11-30T19:19:21.688Z,18.30
2022-11-30T19:21:55.184Z,18.23
2022-11-30T19:24:24.867Z,20.55
2022-11-30T19:26:54.277Z,18.23
2022-11-30T19:29:23.299Z,25.73
2022-11-30T19:31:52.416Z,23.63
2022-11-30T19:34:21.791Z,23.50
2022-11-30T19:36:52.328Z,21.42
2022-11-30T19:39:21.656Z,21.63
2022-11-30T19:41:50.706Z,22.75
2022-11-30T19:44:19.873Z,21.80
2022-11-30T19:46:48.907Z,23.52
2022-11-30T19:49:17.921Z,22.10
2022-11-30T19:51:47.389Z,21.08
2022-11-30T19:54:17.798Z,21.10
2022-11-30T19:56:47.136Z,23.77
2022-11-30T19:59:16.489Z,25.00
2022-11-30T20:01:45.873Z,24.77
2022-11-30T20:04:15.381Z,21.20
2022-11-30T20:06:44.573Z,21.05
2022-11-30T20:09:14.131Z,21.75
2022-11-30T20:11:44.715Z,22.05
2022-11-30T20:14:17.853Z,21.70
2022-11-30T20:16:47.043Z,21.38
2022-11-30T20:19:19.144Z,22.80
2022-11-30T20:21:48.763Z,27.85
2022-11-30T20:24:18.819Z,27.80
2022-11-30T20:26:52.703Z,25.45
2022-11-30T20:29:24.435Z,24.23
2022-11-30T20:31:53.823Z,24.65
2022-11-30T20:34:23.894Z,22.23
2022-11-30T20:36:53.212Z,22.80
2022-11-30T20:39:22.688Z,20.52
2022-11-30T20:41:54.600Z,21.60
2022-11-30T20:44:23.904Z,22.27
2022-11-30T20:46:53.218Z,22.10
2022-11-30T20:49:22.466Z,21.10
2022-11-30T20:51:54.681Z,21.50
2022-11-30T20:54:23.896Z,19.88
2022-11-30T20:56:54.682Z,20.95
2022-11-30T20:59:26.696Z,22.13
2022-11-30T21:01:59.585Z,21.27
2022-11-30T21:04:28.725Z,20.92
2022-11-30T21:06:58.308Z,20.63
2022-11-30T21:09:27.496Z,20.08
2022-11-30T21:11:59.634Z,18.70
2022-11-30T21:14:29.013Z,21.77
2022-11-30T21:16:58.717Z,21.10
2022-11-30T21:19:28.195Z,20.13
2022-11-30T21:21:59.272Z,21.73
2022-11-30T21:24:28.739Z,21.40
2022-11-30T21:26:59.185Z,21.67
2022-11-30T21:29:28.191Z,19.88
2022-11-30T21:31:57.493Z,20.88
2022-11-30T21:34:28.836Z,20.83
2022-11-30T21:36:58.591Z,20.58
2022-11-30T21:39:28.421Z,21.08
2022-11-30T21:42:01.473Z,19.88
2022-11-30T21:44:31.459Z,21.48
2022-11-30T21:47:00.875Z,20.27
2022-11-30T21:49:33.097Z,19.55
2022-11-30T21:52:02.204Z,19.58
2022-11-30T21:54:31.902Z,21.00
2022-11-30T21:57:03.399Z,21.00
2022-11-30T21:59:33.059Z,20.33
2022-11-30T22:02:04.450Z,19.25
2022-11-30T22:04:38.276Z,19.42
2022-11-30T22:07:07.972Z,21.20
2022-11-30T22:09:40.115Z,20.55
2022-11-30T22:12:11.050Z,22.17
2022-11-30T22:14:40.397Z,23.33
2022-11-30T22:17:09.933Z,22.90
2022-11-30T22:19:39.400Z,20.85
2022-11-30T22:22:08.373Z,22.55
2022-11-30T22:24:37.475Z,22.05
2022-11-30T22:27:16.119Z,22.88
2022-11-30T22:29:48.367Z,23.48
2022-11-30T22:32:20.857Z,22.98
2022-11-30T22:34:50.089Z,20.80
2022-11-30T22:37:19.162Z,20.70
2022-11-30T22:39:48.593Z,22.48
2022-11-30T22:42:20.634Z,20.13
2022-11-30T22:44:51.352Z,21.15
2022-11-30T22:47:22.682Z,19.75
2022-11-30T22:49:52.043Z,18.88
2022-11-30T22:52:36.485Z,20.75
2022-11-30T22:55:10.929Z,19.60
2022-11-30T22:57:40.264Z,20.30
2022-11-30T23:00:12.318Z,19.42
2022-11-30T23:02:41.529Z,20.17
2022-11-30T23:05:13.474Z,20.52
2022-11-30T23:07:47.500Z,18.83
2022-11-30T23:10:19.066Z,19.70
2022-11-30T23:12:59.640Z,19.08
2022-11-30T23:15:33.778Z,17.83
2022-11-30T23:18:03.356Z,20.85
2022-11-30T23:20:33.074Z,19.25
2022-11-30T23:23:02.252Z,19.48
2022-11-30T23:25:31.560Z,19.67
2022-11-30T23:28:00.644Z,20.42
2022-11-30T23:30:29.641Z,18.90
2022-11-30T23:33:00.181Z,17.98
2022-11-30T23:35:29.357Z,20.58
2022-11-30T23:37:58.549Z,18.83
2022-11-30T23:40:27.871Z,18.52
2022-11-30T23:42:56.957Z,19.98
2022-11-30T23:45:25.937Z,19.67
2022-11-30T23:47:55.235Z,20.30
2022-11-30T23:50:26.121Z,18.38
2022-11-30T23:52:55.582Z,17.27
2022-11-30T23:55:25.001Z,18.10
2022-11-30T23:57:57.338Z,19.30
